createdAt,value
2022-11-27T00:09:34.556Z,5.82
2022-11-27T00:19:37.804Z,6.30
2022-11-27T00:29:42.387Z,6.72
2022-11-27T00:39:45.262Z,6.80
2022-11-27T00:49:49.566Z,6.13
2022-11-27T00:59:52.553Z,9.17
2022-11-27T01:09:57.077Z,7.20
2022-11-27T01:19:59.992Z,7.10
2022-11-27T01:30:05.241Z,6.85
2022-11-27T01:40:09.778Z,6.65
2022-11-27T01:50:20.124Z,6.70
2022-11-27T02:00:23.488Z,7.40
2022-11-27T02:10:37.266Z,7.97
2022-11-27T02:20:48.519Z,8.75
2022-11-27T02:30:58.702Z,7.95
2022-11-27T02:41:08.228Z,8.23
2022-11-27T02:51:17.007Z,9.85
2022-11-27T03:01:23.435Z,9.13
2022-11-27T03:11:30.853Z,8.10
2022-11-27T03:21:39.971Z,7.20
2022-11-27T03:31:45.086Z,7.15
2022-11-27T03:41:55.741Z,6.28
2022-11-27T03:52:09.136Z,5.53
2022-11-27T04:02:14.661Z,5.30
2022-11-27T04:12:19.030Z,5.82
2022-11-27T04:22:21.993Z,4.80
2022-11-27T04:32:26.293Z,5.18
2022-11-27T04:42:29.240Z,4.97
2022-11-27T04:52:33.543Z,5.00
2022-11-27T05:02:36.538Z,4.90
2022-11-27T05:12:40.915Z,4.90
2022-11-27T05:22:44.281Z,5.27
2022-11-27T05:32:48.571Z,4.72
2022-11-27T05:42:51.548Z,3.67
2022-11-27T05:52:55.843Z,4.32
2022-11-27T06:02:59.043Z,3.50
2022-11-27T06:13:03.554Z,5.18
2022-11-27T06:23:06.481Z,4.53
2022-11-27T06:33:10.855Z,4.95
2022-11-27T06:43:13.899Z,4.33
2022-11-27T06:53:19.290Z,4.47
2022-11-27T07:03:22.314Z,5.53
2022-11-27T07:13:26.614Z,5.03
2022-11-27T07:23:29.554Z,3.83
2022-11-27T07:33:33.904Z,4.72
2022-11-27T07:43:37.350Z,3.97
2022-11-27T07:53:42.594Z,6.80
2022-11-27T08:03:45.675Z,7.00
2022-11-27T08:13:51.012Z,6.95
2022-11-27T08:23:54.059Z,6.95
2022-11-27T08:33:58.458Z,8.00
2022-11-27T08:44:03.541Z,7.37
2022-11-27T08:54:10.274Z,8.68
2022-11-27T09:04:13.411Z,9.52
2022-11-27T09:14:18.612Z,9.15
2022-11-27T09:24:21.905Z,9.07
2022-11-27T09:34:26.464Z,9.57
2022-11-27T09:44:36.691Z,10.60
2022-11-27T09:54:52.343Z,10.95
2022-11-27T10:05:13.575Z,10.70
2022-11-27T10:15:29.749Z,10.60
2022-11-27T10:25:40.988Z,10.10
2022-11-27T10:35:49.053Z,10.82
2022-11-27T10:45:55.461Z,10.57
2022-11-27T10:56:38.368Z,10.10
2022-11-27T11:06:44.383Z,10.48
2022-11-27T11:16:49.109Z,8.68
2022-11-27T11:26:55.310Z,9.48
2022-11-27T11:37:02.740Z,10.30
2022-11-27T11:47:05.776Z,11.63
2022-11-27T11:57:47.420Z,10.27
2022-11-27T12:08:04.177Z,9.68
2022-11-27T12:18:19.737Z,9.15
2022-11-27T12:28:42.645Z,9.80
2022-11-27T12:39:01.406Z,8.80
2022-11-27T12:49:11.592Z,8.80
2022-11-27T12:59:22.841Z,9.98
2022-11-27T13:09:36.700Z,11.85
2022-11-27T13:19:46.141Z,11.00
2022-11-27T13:29:54.340Z,12.45
2022-11-27T13:40:05.478Z,11.52
2022-11-27T13:50:11.794Z,12.90
2022-11-27T14:00:17.615Z,12.23
2022-11-27T14:10:23.122Z,10.82
2022-11-27T14:20:31.463Z,13.13
2022-11-27T14:30:40.754Z,11.68
2022-11-27T14:40:46.391Z,11.85
2022-11-27T14:50:50.921Z,12.23
2022-11-27T15:00:59.208Z,11.80
2022-11-27T15:11:03.911Z,11.90
2022-11-27T15:21:13.571Z,12.48
2022-11-27T15:31:26.424Z,11.02
2022-11-27T15:41:33.399Z,12.20
2022-11-27T15:51:36.418Z,12.55
2022-11-27T16:01:41.004Z,10.27
2022-11-27T16:11:44.070Z,10.30
2022-11-27T16:21:48.867Z,11.43
2022-11-27T16:31:51.975Z,10.75
2022-11-27T16:41:56.545Z,9.75
2022-11-27T16:51:59.573Z,10.63
2022-11-27T17:02:04.142Z,10.73
2022-11-27T17:12:07.827Z,10.60
2022-11-27T17:22:12.843Z,11.17
2022-11-27T17:32:15.834Z,10.23
2022-11-27T17:42:22.846Z,10.40
2022-11-27T17:52:26.023Z,10.10
2022-11-27T18:02:30.557Z,11.13
2022-11-27T18:12:33.740Z,11.13
2022-11-27T18:22:38.293Z,11.75
2022-11-27T18:32:41.394Z,11.53
2022-11-27T18:42:45.770Z,11.48
2022-11-27T18:52:50.470Z,12.30
2022-11-27T19:02:55.217Z,12.88
2022-11-27T19:12:58.214Z,17.38
2022-11-27T19:23:02.584Z,14.10
2022-11-27T19:33:06.934Z,12.05
2022-11-27T19:43:11.257Z,12.73
2022-11-27T19:53:14.617Z,12.70
2022-11-27T20:03:18.950Z,11.15
2022-11-27T20:13:21.958Z,9.40
2022-11-27T20:23:26.312Z,11.23
2022-11-27T20:33:29.771Z,11.67
2022-11-27T20:43:34.333Z,12.38
2022-11-27T20:53:38.094Z,10.23
2022-11-27T21:03:42.640Z,14.48
2022-11-27T21:13:46.246Z,12.90
2022-11-27T21:23:51.181Z,13.98
2022-11-27T21:33:55.785Z,10.93
2022-11-27T21:44:02.360Z,11.65
2022-11-27T21:54:07.749Z,11.45
2022-11-27T22:14:16.779Z,9.65
2022-11-27T22:24:21.150Z,9.35
2022-11-27T22:34:27.780Z,8.40
2022-11-27T22:44:32.297Z,9.15
2022-11-27T22:54:35.269Z,9.30
2022-11-27T23:04:40.065Z,8.23
2022-11-27T23:14:44.229Z,8.98
2022-11-27T23:24:48.891Z,8.57
2022-11-27T23:34:51.889Z,8.67
2022-11-27T23:44:56.198Z,7.95
2022-11-27T23:54:59.109Z,8.70
